Time;durP1;ratioP1;P1;durP2;ratioP2;P2;SDS_P1;SDS_P2;PMS_P1;PMS_P2;Temp;Humidity;BMP_temperature;BMP_pressure;BME280_temperature;BME280_humidity;BME280_pressure;Samples;Min_cycle;Max_cycle;Signal;HPM_P1;HPM_P2
2023/07/02 00:00:38;;;;;;;;;;;;;;;-140.72;100.00;52650.59;4993197;28;19918;-70
2023/07/02 00:03:03;;;;;;;;;;;;;;;-140.72;100.00;52662.78;4975582;28;19964;-70
2023/07/02 00:05:29;;;;;;;;;;;;;;;-140.72;100.00;52610.00;4992904;28;20329;-70
2023/07/02 00:07:54;;;;;;;;;;;;;;;-140.72;100.00;52640.44;4992611;28;19922;-69
2023/07/02 00:10:19;;;;;;;;;;;;;;;-140.72;100.00;52681.03;4979967;28;19918;-69
2023/07/02 00:12:44;;;;;;;;;;;;;;;-140.72;100.00;52630.31;4990352;28;19918;-70
2023/07/02 00:15:10;;;;;;;;;;;;;;;-140.72;100.00;52634.38;4991078;28;19968;-70
2023/07/02 00:17:39;;;;;;;;;;;;;;;-140.72;100.00;52636.38;4978147;28;19957;-70
2023/07/02 00:20:08;;;;;;;;;;;;;;;-140.72;100.00;52683.06;4987668;28;20000;-70
2023/07/02 00:22:36;;;;;;;;;;;;;;;-140.72;100.00;52687.13;4984715;28;19922;-70
2023/07/02 00:25:01;;;;;;;;;;;;;;;-140.72;100.00;52662.78;4971959;28;19934;-70
2023/07/02 00:27:26;;;;;;;;;;;;;;;-140.72;100.00;52622.19;4982818;28;20372;-70
2023/07/02 00:29:52;;;;;;;;;;;;;;;-140.72;100.00;52640.44;4973467;28;19980;-70
2023/07/02 00:32:17;;;;;;;;;;;;;;;-140.72;100.00;52679.00;4986255;28;19942;-70
2023/07/02 00:34:42;;;;;;;;;;;;;;;-140.72;100.00;52658.72;4989474;28;19922;-70
2023/07/02 00:37:07;;;;;;;;;;;;;;;-140.72;100.00;52676.97;4983559;28;19917;-69
2023/07/02 00:39:32;;;;;;;;;;;;;;;-140.72;100.00;52626.25;4973206;28;20025;-70
2023/07/02 00:42:02;;;;;;;;;;;;;;;-140.72;100.00;52616.09;4994990;28;19922;-70
2023/07/02 00:44:27;;;;;;;;;;;;;;;-140.72;100.00;52648.56;4995441;28;19922;-70
2023/07/02 00:46:53;;;;;;;;;;;;;;;-140.72;100.00;52638.41;4977389;28;20240;-70
2023/07/02 00:49:18;;;;;;;;;;;;;;;-140.72;100.00;52642.47;4972554;28;20357;-69
2023/07/02 00:51:49;;;;;;;;;;;;;;;-140.72;100.00;52652.63;4987017;28;19933;-70
2023/07/02 00:54:15;;;;;;;;;;;;;;;-140.72;100.00;52670.88;4968242;28;19922;-70
2023/07/02 00:56:45;;;;;;;;;;;;;;;-140.72;100.00;52674.94;4974811;28;19959;-70
2023/07/02 00:59:11;;;;;;;;;;;;;;;-140.72;100.00;52670.88;4974176;28;19923;-70
2023/07/02 01:01:37;;;;;;;;;;;;;;;-140.72;100.00;52650.59;4974824;28;20080;-70
2023/07/02 01:04:04;;;;;;;;;;;;;;;-140.72;100.00;52695.25;4970797;28;19933;-71
2023/07/02 01:06:34;;;;;;;;;;;;;;;-140.72;100.00;52689.16;4955976;28;20375;-71
2023/07/02 01:09:00;;;;;;;;;;;;;;;-140.72;100.00;52664.81;4986468;28;20020;-70
2023/07/02 01:11:27;;;;;;;;;;;;;;;-140.72;100.00;52683.06;4979245;28;19922;-70
2023/07/02 01:13:54;;;;;;;;;;;;;;;-140.72;100.00;52654.66;4982380;28;20024;-70
2023/07/02 01:16:21;;;;;;;;;;;;;;;-140.72;100.00;52711.47;4977376;28;20316;-70
2023/07/02 01:18:47;;;;;;;;;;;;;;;-140.72;100.00;52681.03;4993675;28;20299;-71
2023/07/02 01:21:13;;;;;;;;;;;;;;;-140.72;100.00;52685.09;4995934;28;20268;-70
2023/07/02 01:23:43;;;;;;;;;;;;;;;-140.72;100.00;52650.59;4976465;28;19936;-71
2023/07/02 01:26:08;;;;;;;;;;;;;;;-140.72;100.00;52658.72;4983760;28;19921;-70
2023/07/02 01:28:38;;;;;;;;;;;;;;;-140.72;100.00;52713.50;4987665;28;20261;-70
2023/07/02 01:31:05;;;;;;;;;;;;;;;-140.72;100.00;52660.75;4990549;28;20004;-70
2023/07/02 01:33:30;;;;;;;;;;;;;;;-140.72;100.00;52699.31;4991097;28;20017;-71
2023/07/02 01:35:57;;;;;;;;;;;;;;;-140.72;100.00;52666.84;4992600;28;20300;-70
2023/07/02 01:38:22;;;;;;;;;;;;;;;-140.72;100.00;52662.78;4995403;28;19963;-71
2023/07/02 01:40:47;;;;;;;;;;;;;;;-140.72;100.00;52664.81;4994334;28;20317;-70
2023/07/02 01:43:13;;;;;;;;;;;;;;;-140.72;100.00;52656.69;4995703;28;19928;-70
2023/07/02 01:45:42;;;;;;;;;;;;;;;-140.72;100.00;52707.41;4977133;28;19925;-71
2023/07/02 01:48:09;;;;;;;;;;;;;;;-140.72;100.00;52672.91;4996077;28;20012;-71
2023/07/02 01:50:35;;;;;;;;;;;;;;;-140.72;100.00;52699.31;4996017;28;20012;-70
2023/07/02 01:53:00;;;;;;;;;;;;;;;-140.72;100.00;52705.38;4974863;28;20052;-70
2023/07/02 01:55:25;;;;;;;;;;;;;;;-140.72;100.00;52697.28;4990196;28;19922;-70
2023/07/02 01:57:51;;;;;;;;;;;;;;;-140.72;100.00;52679.00;4972021;28;20360;-70
2023/07/02 02:00:17;;;;;;;;;;;;;;;-140.72;100.00;52670.88;4993783;28;19963;-70
2023/07/02 02:02:43;;;;;;;;;;;;;;;-140.72;100.00;52703.34;4992498;28;20008;-70
2023/07/02 02:05:09;;;;;;;;;;;;;;;-140.72;100.00;52679.00;4990529;28;20020;-70
2023/07/02 02:07:35;;;;;;;;;;;;;;;-140.72;100.00;52715.53;4984648;28;19922;-70
2023/07/02 02:10:15;;;;;;;;;;;;;;;-140.72;100.00;52679.00;4986143;28;20402;-71
2023/07/02 02:12:41;;;;;;;;;;;;;;;-140.72;100.00;52703.34;4989629;28;19968;-70
2023/07/02 02:15:06;;;;;;;;;;;;;;;-140.72;100.00;52719.59;4996831;28;19922;-70
2023/07/02 02:17:32;;;;;;;;;;;;;;;-140.72;100.00;52683.06;4995643;28;19956;-70
2023/07/02 02:19:58;;;;;;;;;;;;;;;-140.72;100.00;52666.84;4975596;28;19922;-70
2023/07/02 02:22:23;;;;;;;;;;;;;;;-140.72;100.00;52683.06;4994194;28;19929;-71
2023/07/02 02:24:48;;;;;;;;;;;;;;;-140.72;100.00;52723.66;4975145;28;19930;-70
2023/07/02 02:27:14;;;;;;;;;;;;;;;-140.72;100.00;52705.38;4994425;28;19926;-70
2023/07/02 02:29:40;;;;;;;;;;;;;;;-140.72;100.00;52707.41;4992111;28;19957;-70
2023/07/02 02:32:06;;;;;;;;;;;;;;;-140.72;100.00;52685.09;4973879;28;19918;-70
2023/07/02 02:34:34;;;;;;;;;;;;;;;-140.72;100.00;52703.34;4985541;28;19922;-70
2023/07/02 02:37:00;;;;;;;;;;;;;;;-140.72;100.00;52687.13;4991392;28;20410;-70
2023/07/02 02:39:25;;;;;;;;;;;;;;;-140.72;100.00;52679.00;4982983;28;19921;-70
2023/07/02 02:41:51;;;;;;;;;;;;;;;-140.72;100.00;52693.22;4978270;28;20414;-70
2023/07/02 02:44:16;;;;;;;;;;;;;;;-140.72;100.00;52707.41;4993651;28;19918;-70
2023/07/02 02:46:41;;;;;;;;;;;;;;;-140.72;100.00;52672.91;4974053;28;19918;-70
2023/07/02 02:49:06;;;;;;;;;;;;;;;-140.72;100.00;52697.28;4992950;28;19922;-70
2023/07/02 02:51:32;;;;;;;;;;;;;;;-140.72;100.00;52681.03;4994326;28;19949;-70
2023/07/02 02:53:57;;;;;;;;;;;;;;;-140.72;100.00;52689.16;4992988;28;19980;-70
2023/07/02 02:56:22;;;;;;;;;;;;;;;-140.72;100.00;52711.47;4993960;28;19921;-70
2023/07/02 02:58:47;;;;;;;;;;;;;;;-140.72;100.00;52711.47;4976544;28;19952;-70
2023/07/02 03:01:13;;;;;;;;;;;;;;;-140.72;100.00;52697.28;4977978;28;19918;-70
2023/07/02 03:03:39;;;;;;;;;;;;;;;-140.72;100.00;52707.41;4976386;28;20308;-71
2023/07/02 03:06:04;;;;;;;;;;;;;;;-140.72;100.00;52731.75;4983551;28;20292;-70
2023/07/02 03:08:30;;;;;;;;;;;;;;;-140.72;100.00;52715.53;4987010;28;19948;-70
2023/07/02 03:11:01;;;;;;;;;;;;;;;-140.72;100.00;52743.94;4993061;28;19917;-70
2023/07/02 03:13:26;;;;;;;;;;;;;;;-140.72;100.00;52687.13;4986880;28;19945;-70
2023/07/02 03:15:52;;;;;;;;;;;;;;;-140.72;100.00;52735.81;4970375;28;19918;-71
2023/07/02 03:18:17;;;;;;;;;;;;;;;-140.72;100.00;52670.88;4993485;28;19921;-70
2023/07/02 03:20:42;;;;;;;;;;;;;;;-140.72;100.00;52705.38;5000926;28;19928;-70
2023/07/02 03:23:08;;;;;;;;;;;;;;;-140.72;100.00;52727.72;5005137;28;20021;-70
2023/07/02 03:25:33;;;;;;;;;;;;;;;-140.72;100.00;52725.69;4980604;28;19923;-70
2023/07/02 03:27:59;;;;;;;;;;;;;;;-140.72;100.00;52666.84;4993884;28;19922;-70
2023/07/02 03:30:34;;;;;;;;;;;;;;;-140.72;100.00;52672.91;4994454;28;20009;-70
2023/07/02 03:32:59;;;;;;;;;;;;;;;-140.72;100.00;52695.25;4992761;28;19929;-70
2023/07/02 03:35:24;;;;;;;;;;;;;;;-140.72;100.00;52679.00;4989729;28;20052;-70
2023/07/02 03:37:50;;;;;;;;;;;;;;;-140.72;100.00;52695.25;4990737;28;19922;-70
2023/07/02 03:40:17;;;;;;;;;;;;;;;-140.72;100.00;52674.94;4971732;28;19928;-70
2023/07/02 03:42:43;;;;;;;;;;;;;;;-140.72;100.00;52705.38;4988416;28;20299;-70
2023/07/02 03:45:08;;;;;;;;;;;;;;;-140.72;100.00;52735.81;4973672;28;19929;-70
2023/07/02 03:47:34;;;;;;;;;;;;;;;-140.72;100.00;52743.94;4987886;28;19922;-71
2023/07/02 03:50:00;;;;;;;;;;;;;;;-140.72;100.00;52711.47;4992064;28;19926;-70
2023/07/02 03:52:26;;;;;;;;;;;;;;;-140.72;100.00;52719.59;4975012;28;19976;-70
2023/07/02 03:54:51;;;;;;;;;;;;;;;-140.72;100.00;52709.44;4992193;28;19957;-70
2023/07/02 03:57:16;;;;;;;;;;;;;;;-140.72;100.00;52715.53;4993350;28;19984;-70
2023/07/02 03:59:41;;;;;;;;;;;;;;;-140.72;100.00;52685.09;4992595;28;19989;-70
2023/07/02 04:02:06;;;;;;;;;;;;;;;-140.72;100.00;52687.13;4974539;28;19922;-70
2023/07/02 04:04:34;;;;;;;;;;;;;;;-140.72;100.00;52695.25;4991213;28;20269;-71
2023/07/02 04:06:59;;;;;;;;;;;;;;;-140.72;100.00;52711.47;4992020;28;19979;-71
2023/07/02 04:09:28;;;;;;;;;;;;;;;-140.72;100.00;52691.19;4966526;28;19965;-71
2023/07/02 04:11:53;;;;;;;;;;;;;;;-140.72;100.00;52737.84;4988970;28;20339;-70
2023/07/02 04:14:18;;;;;;;;;;;;;;;-140.72;100.00;52687.13;4974295;28;19926;-70
2023/07/02 04:16:51;;;;;;;;;;;;;;;-140.72;100.00;52750.03;4984638;28;20012;-70
2023/07/02 04:19:16;;;;;;;;;;;;;;;-140.72;100.00;52715.53;4989282;28;19918;-70
2023/07/02 04:21:41;;;;;;;;;;;;;;;-140.72;100.00;52709.44;4986799;28;19922;-70
2023/07/02 04:24:06;;;;;;;;;;;;;;;-140.72;100.00;52691.19;4993381;28;19925;-70
2023/07/02 04:26:32;;;;;;;;;;;;;;;-140.72;100.00;52709.44;4992102;28;19958;-70
2023/07/02 04:28:57;;;;;;;;;;;;;;;-140.72;100.00;52668.84;4992575;28;20012;-70
2023/07/02 04:31:28;;;;;;;;;;;;;;;-140.72;100.00;52695.25;4980381;28;19922;-70
2023/07/02 04:33:54;;;;;;;;;;;;;;;-140.72;100.00;52662.78;4992092;28;20374;-70
2023/07/02 04:36:19;;;;;;;;;;;;;;;-140.72;100.00;52668.84;4974024;28;20001;-74
2023/07/02 04:38:44;;;;;;;;;;;;;;;-140.72;100.00;52693.22;4975016;28;20300;-74
2023/07/02 04:41:10;;;;;;;;;;;;;;;-140.72;100.00;52723.66;4971638;28;20053;-75
2023/07/02 04:43:35;;;;;;;;;;;;;;;-140.72;100.00;52715.53;4984249;28;20237;-75
2023/07/02 04:46:01;;;;;;;;;;;;;;;-140.72;100.00;52691.19;4974624;28;20393;-74
2023/07/02 04:48:26;;;;;;;;;;;;;;;-140.72;100.00;52664.81;4975364;28;20021;-74
2023/07/02 04:50:52;;;;;;;;;;;;;;;-140.72;100.00;52691.19;4978797;28;19925;-75
2023/07/02 04:53:17;;;;;;;;;;;;;;;-140.72;100.00;52687.13;4995261;28;20014;-74
2023/07/02 04:55:43;;;;;;;;;;;;;;;-140.72;100.00;52711.47;4978279;28;19972;-74
2023/07/02 04:58:08;;;;;;;;;;;;;;;-140.72;100.00;52697.28;4998800;28;19949;-74
2023/07/02 05:00:33;;;;;;;;;;;;;;;-140.72;100.00;52650.59;4992716;28;20398;-74
2023/07/02 05:02:59;;;;;;;;;;;;;;;-140.72;100.00;52652.63;4994020;28;20376;-75
2023/07/02 05:05:24;;;;;;;;;;;;;;;-140.72;100.00;52634.38;4979537;28;19985;-74
2023/07/02 05:07:49;;;;;;;;;;;;;;;-140.72;100.00;52687.13;4998609;28;20017;-74
2023/07/02 05:10:15;;;;;;;;;;;;;;;-140.72;100.00;52674.94;5014037;28;19929;-72
2023/07/02 05:12:40;;;;;;;;;;;;;;;-140.72;100.00;52658.72;4980756;28;19929;-71
2023/07/02 05:15:06;;;;;;;;;;;;;;;-140.72;100.00;52672.91;4990707;28;19957;-73
2023/07/02 05:17:37;;;;;;;;;;;;;;;-140.72;100.00;52699.31;4993844;28;19964;-75
2023/07/02 05:20:04;;;;;;;;;;;;;;;-140.72;100.00;52697.28;4994491;28;19992;-75
2023/07/02 05:22:29;;;;;;;;;;;;;;;-140.72;100.00;52668.84;4993839;28;19922;-75
2023/07/02 05:24:55;;;;;;;;;;;;;;;-140.72;100.00;52691.19;4990457;28;19972;-76
2023/07/02 05:27:20;;;;;;;;;;;;;;;-140.72;100.00;52662.78;4978907;28;19925;-76
2023/07/02 05:29:45;;;;;;;;;;;;;;;-140.72;100.00;52666.84;4995922;28;20284;-74
2023/07/02 05:32:10;;;;;;;;;;;;;;;-140.72;100.00;52662.78;4979329;28;19992;-73
2023/07/02 05:34:37;;;;;;;;;;;;;;;-140.72;100.00;52672.91;4977669;28;20319;-72
2023/07/02 05:37:03;;;;;;;;;;;;;;;-140.72;100.00;52628.28;4978329;28;19925;-72
2023/07/02 05:39:29;;;;;;;;;;;;;;;-140.72;100.00;52650.59;4980201;28;20012;-73
2023/07/02 05:41:54;;;;;;;;;;;;;;;-140.72;100.00;52632.34;4985999;28;20257;-72
2023/07/02 05:44:20;;;;;;;;;;;;;;;-140.72;100.00;52614.06;4992963;28;19926;-74
2023/07/02 05:46:45;;;;;;;;;;;;;;;-140.72;100.00;52662.78;4987193;28;19994;-73
2023/07/02 05:49:10;;;;;;;;;;;;;;;-140.72;100.00;52626.25;4998409;28;19962;-73
2023/07/02 05:51:35;;;;;;;;;;;;;;;-140.72;100.00;52636.38;4994560;28;20017;-73
2023/07/02 05:54:01;;;;;;;;;;;;;;;-140.72;100.00;52626.25;5001107;28;19917;-71
2023/07/02 05:56:26;;;;;;;;;;;;;;;-140.72;100.00;52640.44;4999864;28;19926;-72
2023/07/02 05:58:51;;;;;;;;;;;;;;;-140.72;100.00;52634.38;4988397;28;19921;-72
2023/07/02 06:01:17;;;;;;;;;;;;;;;-140.72;100.00;52618.13;4989727;28;20020;-72
2023/07/02 06:03:43;;;;;;;;;;;;;;;-140.72;100.00;52658.72;4990753;28;19929;-71
2023/07/02 06:06:08;;;;;;;;;;;;;;;-140.72;100.00;52636.38;4974875;28;20296;-72
2023/07/02 06:08:34;;;;;;;;;;;;;;;-140.72;100.00;52634.38;4992545;28;19933;-72
2023/07/02 06:10:59;;;;;;;;;;;;;;;-140.72;100.00;52640.44;4994071;28;19918;-72
2023/07/02 06:13:24;;;;;;;;;;;;;;;-140.72;100.00;52634.38;4987258;28;19922;-72
2023/07/02 06:15:49;;;;;;;;;;;;;;;-140.72;100.00;52652.63;4974020;28;19918;-71
2023/07/02 06:18:16;;;;;;;;;;;;;;;-140.72;100.00;52644.50;4994883;28;20016;-71
2023/07/02 06:20:41;;;;;;;;;;;;;;;-140.72;100.00;52630.31;4976355;28;20287;-71
2023/07/02 06:23:06;;;;;;;;;;;;;;;-140.72;100.00;52612.03;4985966;28;19922;-71
2023/07/02 06:25:32;;;;;;;;;;;;;;;-140.72;100.00;52626.25;4988699;28;19977;-72
2023/07/02 06:27:58;;;;;;;;;;;;;;;-140.72;100.00;52630.31;4985994;28;19929;-70
2023/07/02 06:30:23;;;;;;;;;;;;;;;-140.72;100.00;52616.09;4992974;28;19957;-70
2023/07/02 06:32:49;;;;;;;;;;;;;;;-140.72;100.00;52612.03;4993356;28;19928;-70
2023/07/02 06:35:16;;;;;;;;;;;;;;;-140.72;100.00;52605.94;4985491;28;19976;-71
2023/07/02 06:37:41;;;;;;;;;;;;;;;-140.72;100.00;52591.75;4999373;28;19921;-71
2023/07/02 06:40:06;;;;;;;;;;;;;;;-140.72;100.00;52593.78;4982232;28;19929;-71
2023/07/02 06:42:32;;;;;;;;;;;;;;;-140.72;100.00;52599.88;4988084;28;20700;-70
2023/07/02 06:44:58;;;;;;;;;;;;;;;-140.72;80.79;52599.88;4983401;28;20354;-71
2023/07/02 06:47:23;;;;;;;;;;;;;;;-140.72;85.64;52593.78;4985879;28;19922;-72
2023/07/02 06:49:48;;;;;;;;;;;;;;;-140.72;70.58;52603.94;4988749;28;19926;-73
2023/07/02 06:52:14;;;;;;;;;;;;;;;-140.72;46.73;52605.94;4992859;28;20009;-71
2023/07/02 06:54:39;;;;;;;;;;;;;;;-140.72;37.57;52642.47;4985706;28;19921;-69
2023/07/02 06:57:05;;;;;;;;;;;;;;;-140.72;33.09;52597.84;4998371;28;19918;-78
2023/07/02 06:59:30;;;;;;;;;;;;;;;-140.72;27.11;52614.06;4979329;28;19960;-71
2023/07/02 07:01:55;;;;;;;;;;;;;;;-140.72;35.19;52589.72;4977370;28;19969;-72
2023/07/02 07:04:20;;;;;;;;;;;;;;;-140.72;25.38;52595.81;4987212;28;19946;-72
2023/07/02 07:06:46;;;;;;;;;;;;;;;-140.72;9.04;52599.88;4989948;28;19918;-72
2023/07/02 07:09:11;;;;;;;;;;;;;;;-140.72;4.98;52583.63;4988610;28;19922;-72
2023/07/02 07:11:36;;;;;;;;;;;;;;;-140.72;18.14;52628.28;4992631;28;20375;-72
2023/07/02 07:14:02;;;;;;;;;;;;;;;-140.72;17.45;52630.31;4980566;28;19944;-81
2023/07/02 07:16:27;;;;;;;;;;;;;;;-140.72;17.38;52605.94;4982915;28;19921;-81
2023/07/02 07:19:01;;;;;;;;;;;;;;;-140.72;6.04;52620.16;4966434;28;19929;-79
2023/07/02 07:21:27;;;;;;;;;;;;;;;-140.72;0.00;52599.88;4973995;28;19918;-80
2023/07/02 07:23:52;;;;;;;;;;;;;;;-140.72;0.00;52622.19;4982023;28;19972;-78
2023/07/02 07:26:17;;;;;;;;;;;;;;;-140.72;0.00;52614.06;4999590;28;19960;-80
2023/07/02 07:28:42;;;;;;;;;;;;;;;-140.72;0.00;52601.91;4980890;28;19945;-80
2023/07/02 07:31:08;;;;;;;;;;;;;;;-140.72;0.00;52557.25;4983635;28;19929;-79
2023/07/02 07:33:33;;;;;;;;;;;;;;;-140.72;0.00;52585.66;4977667;28;20418;-79
2023/07/02 07:35:59;;;;;;;;;;;;;;;-140.72;0.00;52595.81;4984918;28;20039;-79
2023/07/02 07:38:25;;;;;;;;;;;;;;;-140.72;0.00;52595.81;4988989;28;19918;-82
2023/07/02 07:40:51;;;;;;;;;;;;;;;-140.72;0.00;52547.09;4972956;28;19926;-76
2023/07/02 07:43:16;;;;;;;;;;;;;;;-140.72;0.00;52565.38;4993953;28;19986;-78
2023/07/02 07:45:41;;;;;;;;;;;;;;;-140.72;0.00;52577.53;4990883;28;19925;-82
2023/07/02 07:48:06;;;;;;;;;;;;;;;-140.72;0.00;52581.59;4981184;28;19952;-78
2023/07/02 07:50:32;;;;;;;;;;;;;;;-140.72;0.00;52569.44;4980697;28;20259;-81
2023/07/02 07:52:58;;;;;;;;;;;;;;;-140.72;0.00;52551.16;4975619;28;19918;-80
2023/07/02 07:55:23;;;;;;;;;;;;;;;-140.72;0.00;52532.91;4979551;28;19925;-79
2023/07/02 07:57:48;;;;;;;;;;;;;;;-140.72;0.00;52553.19;4981013;28;19930;-80
2023/07/02 08:00:14;;;;;;;;;;;;;;;-140.72;0.00;52549.13;4983815;28;20202;-80
2023/07/02 08:02:39;;;;;;;;;;;;;;;-140.72;0.00;52557.25;4976949;28;20000;-79
2023/07/02 08:05:05;;;;;;;;;;;;;;;-140.72;0.00;52545.06;4966006;28;19925;-80
2023/07/02 08:07:33;;;;;;;;;;;;;;;-140.72;0.00;52539.00;4967108;28;20380;-79
2023/07/02 08:09:59;;;;;;;;;;;;;;;-140.72;0.00;52563.34;4991158;28;19925;-83
2023/07/02 08:12:24;;;;;;;;;;;;;;;-140.72;0.00;52557.25;4979433;28;19981;-81
2023/07/02 08:14:49;;;;;;;;;;;;;;;-140.72;0.00;52512.59;4983439;28;20011;-81
2023/07/02 08:17:15;;;;;;;;;;;;;;;-140.72;0.00;52541.03;4980913;28;19925;-80
2023/07/02 08:19:40;;;;;;;;;;;;;;;-140.72;0.00;52555.22;4981420;28;19926;-80
2023/07/02 08:22:05;;;;;;;;;;;;;;;-140.72;0.00;52539.00;4983123;28;19933;-82
2023/07/02 08:24:31;;;;;;;;;;;;;;;-140.72;0.00;52530.88;4993201;28;20012;-81
2023/07/02 08:26:56;;;;;;;;;;;;;;;-140.72;0.00;52571.47;4992880;28;20400;-82
2023/07/02 08:29:22;;;;;;;;;;;;;;;-140.72;0.00;52496.38;4989035;28;19918;-83
2023/07/02 08:31:47;;;;;;;;;;;;;;;-140.72;0.00;52536.97;4991147;28;19922;-81
2023/07/02 08:34:12;;;;;;;;;;;;;;;-140.72;0.00;52504.50;4988464;28;19922;-81
2023/07/02 08:36:38;;;;;;;;;;;;;;;-140.72;0.00;52524.78;4982870;28;20249;-81
2023/07/02 08:39:04;;;;;;;;;;;;;;;-140.72;0.00;52534.94;4990795;28;19945;-82
2023/07/02 08:41:29;;;;;;;;;;;;;;;-140.72;0.00;52494.34;4990113;28;19926;-80
2023/07/02 08:43:55;;;;;;;;;;;;;;;-140.72;0.00;52506.53;4997784;28;19926;-80
2023/07/02 08:46:21;;;;;;;;;;;;;;;-140.72;0.00;52500.44;5002699;28;19913;-82
2023/07/02 08:48:46;;;;;;;;;;;;;;;-140.72;0.00;52488.25;4998462;28;19917;-81
2023/07/02 08:51:12;;;;;;;;;;;;;;;-140.72;0.00;52455.78;5002217;28;19937;-81
2023/07/02 08:53:37;;;;;;;;;;;;;;;-140.72;0.00;52463.91;4973676;28;19941;-81
2023/07/02 08:56:03;;;;;;;;;;;;;;;-140.72;0.00;52431.44;4984023;28;19964;-81
2023/07/02 08:58:28;;;;;;;;;;;;;;;-140.72;0.00;52415.22;4993926;28;19917;-81
2023/07/02 09:01:12;;;;;;;;;;;;;;;-140.72;0.00;52504.50;4989574;28;19989;-80
2023/07/02 09:03:38;;;;;;;;;;;;;;;-140.72;0.00;52496.38;4985881;28;19922;-79
2023/07/02 09:06:06;;;;;;;;;;;;;;;-140.72;0.00;52431.44;4983625;28;19929;-81
2023/07/02 09:08:35;;;;;;;;;;;;;;;-140.72;0.00;52474.06;4979585;28;19922;-78
2023/07/02 09:11:06;;;;;;;;;;;;;;;-140.72;0.00;52431.44;4992129;28;19922;-80
2023/07/02 09:13:32;;;;;;;;;;;;;;;-140.72;0.00;52415.22;4979997;28;19986;-79
2023/07/02 09:15:57;;;;;;;;;;;;;;;-140.72;0.00;52409.13;4973430;28;19921;-76
2023/07/02 09:18:25;;;;;;;;;;;;;;;-140.72;0.00;52417.25;4983817;28;20384;-78
2023/07/02 09:20:51;;;;;;;;;;;;;;;-140.72;0.00;52370.56;4983555;28;19933;-80
2023/07/02 09:23:17;;;;;;;;;;;;;;;-140.72;0.00;52443.63;4981242;28;19921;-80
2023/07/02 09:25:42;;;;;;;;;;;;;;;-140.72;0.00;52429.41;4977197;28;19944;-77
2023/07/02 09:28:24;;;;;;;;;;;;;;;-140.72;0.00;52390.84;4980971;28;20120;-76
2023/07/02 09:30:52;;;;;;;;;;;;;;;-140.72;0.00;52403.03;4978534;28;19921;-77
2023/07/02 09:33:18;;;;;;;;;;;;;;;-140.72;0.00;52390.84;4978500;28;19933;-79
2023/07/02 09:35:44;;;;;;;;;;;;;;;-140.72;0.00;52315.78;4975408;28;19918;-78
2023/07/02 09:38:10;;;;;;;;;;;;;;;-140.72;0.00;52289.41;4967259;28;20391;-81
2023/07/02 09:40:41;;;;;;;;;;;;;;;-140.72;0.00;52283.31;4980238;28;19918;-77
2023/07/02 09:43:07;;;;;;;;;;;;;;;-140.72;0.00;52281.28;4977451;28;19925;-77
2023/07/02 09:45:32;;;;;;;;;;;;;;;-140.72;0.00;52271.16;4979643;28;19918;-78
2023/07/02 09:47:58;;;;;;;;;;;;;;;-140.72;0.00;52317.81;4976192;28;19949;-71
2023/07/02 09:50:24;;;;;;;;;;;;;;;-140.72;0.00;52303.59;4988814;28;20037;-70
2023/07/02 09:52:50;;;;;;;;;;;;;;;-140.72;0.00;52297.53;4988718;28;19932;-71
2023/07/02 09:55:15;;;;;;;;;;;;;;;-140.72;0.00;52392.88;4987686;28;19918;-71
2023/07/02 09:57:42;;;;;;;;;;;;;;;-140.72;0.00;52313.75;4983292;28;20016;-71
2023/07/02 10:00:08;;;;;;;;;;;;;;;-140.72;0.00;52285.34;4993201;28;20009;-71
2023/07/02 10:02:34;;;;;;;;;;;;;;;-140.72;0.00;52273.19;4988654;28;20380;-69
2023/07/02 10:04:59;;;;;;;;;;;;;;;-140.72;0.00;52299.56;4990122;28;19977;-69
2023/07/02 10:07:28;;;;;;;;;;;;;;;-140.72;0.00;52330.00;4994665;28;19921;-69
2023/07/02 10:09:53;;;;;;;;;;;;;;;-140.72;0.00;52269.13;4980113;28;19925;-69
2023/07/02 10:12:23;;;;;;;;;;;;;;;-140.72;0.00;52271.16;4989712;28;20360;-70
2023/07/02 10:14:50;;;;;;;;;;;;;;;-140.72;0.00;52167.66;4971999;28;19926;-69
2023/07/02 10:17:30;;;;;;;;;;;;;;;-140.72;0.00;52250.84;4994269;28;19918;-69
2023/07/02 10:20:04;;;;;;;;;;;;;;;-140.72;0.00;52287.38;4986944;28;20336;-70
2023/07/02 10:22:41;;;;;;;;;;;;;;;-140.72;0.00;52224.47;4980187;28;19940;-70
2023/07/02 10:25:07;;;;;;;;;;;;;;;-140.72;0.00;52192.00;4976129;28;19922;-70
2023/07/02 10:27:36;;;;;;;;;;;;;;;-140.72;0.00;52151.44;4977165;28;20276;-70
2023/07/02 10:30:03;;;;;;;;;;;;;;;-140.72;0.00;52283.31;4965326;28;19922;-70
2023/07/02 10:32:29;;;;;;;;;;;;;;;-140.72;0.00;52192.00;4994769;28;19918;-70
2023/07/02 10:34:54;;;;;;;;;;;;;;;-140.72;0.00;52155.50;4969154;28;19933;-70
2023/07/02 10:37:20;;;;;;;;;;;;;;;-140.72;0.00;52110.84;4989083;28;19949;-69
2023/07/02 10:39:45;;;;;;;;;;;;;;;-140.72;0.00;52143.31;4994548;28;19922;-70
2023/07/02 10:42:10;;;;;;;;;;;;;;;-140.72;0.00;52127.09;4968026;28;20268;-70
2023/07/02 10:44:46;;;;;;;;;;;;;;;-140.72;0.00;52230.56;4987050;28;19926;-69
2023/07/02 10:47:12;;;;;;;;;;;;;;;-140.72;0.00;52289.41;4989001;28;20289;-70
2023/07/02 10:49:37;;;;;;;;;;;;;;;-140.72;0.00;52321.88;4987426;28;19988;-70
2023/07/02 10:52:03;;;;;;;;;;;;;;;-140.72;0.00;52340.13;4979267;28;19941;-70
2023/07/02 10:54:41;;;;;;;;;;;;;;;-140.72;0.00;52202.16;4993275;28;19932;-70
2023/07/02 10:57:07;;;;;;;;;;;;;;;-140.72;0.00;52252.88;4993276;28;19921;-69
2023/07/02 10:59:33;;;;;;;;;;;;;;;-140.72;0.00;52157.53;4991027;28;19922;-70
2023/07/02 11:02:01;;;;;;;;;;;;;;;-140.72;0.00;52143.31;4992529;28;20409;-69
2023/07/02 11:04:27;;;;;;;;;;;;;;;-140.72;0.00;52135.19;4992939;28;19922;-68
2023/07/02 11:06:52;;;;;;;;;;;;;;;-140.72;0.00;52200.13;4992918;28;19924;-69
2023/07/02 11:09:18;;;;;;;;;;;;;;;-140.72;0.00;52261.00;4992318;28;19925;-69
2023/07/02 11:11:54;;;;;;;;;;;;;;;-140.72;0.00;52149.41;4992275;28;20103;-69
2023/07/02 11:14:35;;;;;;;;;;;;;;;-140.72;0.00;52139.25;4992510;28;19984;-69
2023/07/02 11:17:05;;;;;;;;;;;;;;;-140.72;0.00;52070.28;4974738;28;20292;-69
2023/07/02 11:19:31;;;;;;;;;;;;;;;-140.72;0.00;52100.72;4984082;28;20385;-69
2023/07/02 11:21:57;;;;;;;;;;;;;;;-140.72;0.00;52035.78;4973604;28;20024;-69
2023/07/02 11:24:33;;;;;;;;;;;;;;;-140.72;0.00;52086.50;4990111;28;20141;-69
2023/07/02 11:27:00;;;;;;;;;;;;;;;-140.72;0.00;52047.97;4972954;28;19929;-69
2023/07/02 11:29:25;;;;;;;;;;;;;;;-140.72;0.00;52015.50;4987471;28;20023;-69
2023/07/02 11:31:50;;;;;;;;;;;;;;;-140.72;0.00;52114.91;4992953;28;20064;-69
2023/07/02 11:34:17;;;;;;;;;;;;;;;-140.72;0.00;52094.63;4988812;28;20027;-69
2023/07/02 11:36:42;;;;;;;;;;;;;;;-140.72;0.00;52064.19;4984903;28;20327;-69
2023/07/02 11:39:07;;;;;;;;;;;;;;;-140.72;0.00;52230.56;4982202;28;19922;-69
2023/07/02 11:41:39;;;;;;;;;;;;;;;-140.72;0.00;52263.03;4974664;28;20269;-69
2023/07/02 11:44:05;;;;;;;;;;;;;;;-140.72;0.00;52277.22;4985655;28;19926;-69
2023/07/02 11:46:30;;;;;;;;;;;;;;;-140.72;0.00;52222.44;4990851;28;20379;-69
2023/07/02 11:48:55;;;;;;;;;;;;;;;-140.72;0.00;52163.59;4980354;28;19918;-69
2023/07/02 11:51:21;;;;;;;;;;;;;;;-140.72;0.00;52281.28;4992360;28;20040;-70
2023/07/02 11:53:46;;;;;;;;;;;;;;;-140.72;0.00;52258.97;4987760;28;19973;-70
2023/07/02 11:56:13;;;;;;;;;;;;;;;-140.72;0.00;52234.63;4988183;28;19928;-70
2023/07/02 11:58:38;;;;;;;;;;;;;;;-140.72;0.00;52204.19;4993397;28;19918;-70
2023/07/02 12:01:03;;;;;;;;;;;;;;;-140.72;0.00;52139.25;4992673;28;19921;-69
2023/07/02 12:03:30;;;;;;;;;;;;;;;-140.72;0.00;52291.44;4974518;28;19926;-69
2023/07/02 12:05:55;;;;;;;;;;;;;;;-140.72;0.00;52159.56;4991388;28;19922;-69
2023/07/02 12:08:20;;;;;;;;;;;;;;;-140.72;0.00;52104.75;4993206;28;19926;-69
2023/07/02 12:10:46;;;;;;;;;;;;;;;-140.72;0.00;52137.22;4992257;28;19922;-68
2023/07/02 12:13:11;;;;;;;;;;;;;;;-140.72;0.00;52135.19;4991279;28;19922;-70
2023/07/02 12:15:36;;;;;;;;;;;;;;;-140.72;0.00;52177.81;4978657;28;19926;-70
2023/07/02 12:18:01;;;;;;;;;;;;;;;-140.72;0.00;52277.22;5008191;28;19926;-70
2023/07/02 12:20:27;;;;;;;;;;;;;;;-140.72;0.00;52175.78;4979368;28;20283;-70